Time;durP1;ratioP1;P1;durP2;ratioP2;P2;SDS_P1;SDS_P2;PMS_P1;PMS_P2;Temp;Humidity;BMP_temperature;BMP_pressure;BME280_temperature;BME280_humidity;BME280_pressure;Samples;Min_cycle;Max_cycle;Signal;HPM_P1;HPM_P2
2023/07/12 00:01:35;;;;;;;6.57;2.58;;;20.60;99.90;;;;;;5017705;28;20041;-86
2023/07/12 00:04:00;;;;;;;6.25;2.55;;;20.50;99.90;;;;;;5017469;28;20051;-86
2023/07/12 00:06:36;;;;;;;7.43;2.80;;;20.50;99.90;;;;;;5017767;28;20044;-86
2023/07/12 00:09:06;;;;;;;6.50;2.60;;;20.50;99.90;;;;;;5018058;28;20033;-85
2023/07/12 00:11:31;;;;;;;6.38;2.60;;;20.50;99.90;;;;;;5033904;28;20518;-86
2023/07/12 00:13:57;;;;;;;8.77;3.25;;;20.50;99.90;;;;;;5033022;28;20049;-86
2023/07/12 00:16:38;;;;;;;6.65;2.92;;;20.50;99.90;;;;;;5017847;28;20044;-86
2023/07/12 00:19:05;;;;;;;6.63;2.92;;;20.50;99.90;;;;;;5033797;28;20082;-87
2023/07/12 00:21:31;;;;;;;7.50;3.05;;;20.50;99.90;;;;;;5033660;28;20044;-86
2023/07/12 00:23:58;;;;;;;7.07;3.10;;;20.50;99.90;;;;;;5033522;28;20037;-87
2023/07/12 00:26:33;;;;;;;7.85;3.22;;;20.50;99.90;;;;;;5033365;28;20071;-86
2023/07/12 00:29:00;;;;;;;5.97;2.80;;;20.50;99.90;;;;;;5017494;28;20499;-86
2023/07/12 00:31:25;;;;;;;6.22;2.72;;;20.40;99.90;;;;;;5033584;28;20396;-87
2023/07/12 00:33:52;;;;;;;6.03;2.63;;;20.40;99.90;;;;;;5033358;28;20036;-87
2023/07/12 00:36:29;;;;;;;7.68;3.30;;;20.40;99.90;;;;;;5033734;28;20504;-87
2023/07/12 00:38:54;;;;;;;6.90;3.03;;;20.30;99.90;;;;;;5017337;28;20491;-87
2023/07/12 00:41:30;;;;;;;7.57;2.88;;;20.30;99.90;;;;;;5033238;28;20033;-87
2023/07/12 00:44:03;;;;;;;8.43;3.50;;;20.30;99.90;;;;;;5033040;28;20037;-87
2023/07/12 00:46:31;;;;;;;7.25;3.47;;;20.30;99.90;;;;;;5016714;28;20041;-87
2023/07/12 00:48:57;;;;;;;7.60;3.50;;;20.20;99.90;;;;;;5033631;28;20033;-87
2023/07/12 00:51:44;;;;;;;8.55;3.65;;;20.20;99.90;;;;;;5033518;28;20072;-87
2023/07/12 00:54:12;;;;;;;8.30;3.22;;;20.20;99.90;;;;;;5016128;28;20036;-87
2023/07/12 00:56:39;;;;;;;6.80;3.20;;;20.10;99.90;;;;;;5033676;28;20237;-87
2023/07/12 00:59:12;;;;;;;7.55;3.60;;;20.10;99.90;;;;;;5016891;28;20048;-87
2023/07/12 01:01:38;;;;;;;7.18;3.50;;;20.10;99.90;;;;;;5017163;28;20404;-87
2023/07/12 01:04:05;;;;;;;7.55;3.60;;;20.10;99.90;;;;;;5032774;28;20516;-86
2023/07/12 01:06:31;;;;;;;7.93;3.45;;;20.00;99.90;;;;;;5033075;28;20402;-87
2023/07/12 01:09:03;;;;;;;7.30;3.20;;;20.00;99.90;;;;;;5016836;28;20037;-87
2023/07/12 01:11:29;;;;;;;7.55;3.40;;;20.00;99.90;;;;;;5033578;28;20398;-87
2023/07/12 01:13:54;;;;;;;7.95;3.17;;;19.90;99.90;;;;;;5032635;28;20041;-87
2023/07/12 01:16:22;;;;;;;7.60;3.20;;;19.90;99.90;;;;;;5033631;28;20690;-87
2023/07/12 01:18:48;;;;;;;6.28;2.97;;;19.80;99.90;;;;;;5033319;28;20037;-87
2023/07/12 01:21:19;;;;;;;7.57;3.33;;;19.80;99.90;;;;;;5033349;28;20040;-87
2023/07/12 01:23:46;;;;;;;6.32;3.17;;;19.70;99.90;;;;;;5016879;28;20072;-87
2023/07/12 01:26:14;;;;;;;7.90;3.17;;;19.70;99.90;;;;;;5016330;28;20037;-86
2023/07/12 01:28:41;;;;;;;7.43;3.30;;;19.70;99.90;;;;;;5033076;28;20037;-87
2023/07/12 01:31:07;;;;;;;8.10;3.13;;;19.60;99.90;;;;;;5032968;28;20036;-87
2023/07/12 01:33:32;;;;;;;6.07;2.70;;;19.50;99.90;;;;;;5032220;28;20144;-86
2023/07/12 01:35:58;;;;;;;7.63;3.30;;;19.50;99.90;;;;;;5033096;28;20056;-86
2023/07/12 01:38:24;;;;;;;8.23;3.80;;;19.40;99.90;;;;;;5033393;28;20072;-87
2023/07/12 01:40:49;;;;;;;7.53;2.97;;;19.40;99.90;;;;;;5032707;28;20124;-86
2023/07/12 01:43:15;;;;;;;7.65;3.05;;;19.30;99.90;;;;;;5032924;28;20041;-86
2023/07/12 01:45:40;;;;;;;7.30;3.10;;;19.30;99.90;;;;;;5016209;28;20079;-87
2023/07/12 01:48:06;;;;;;;7.45;3.30;;;19.20;99.90;;;;;;5032967;28;20048;-86
2023/07/12 01:50:32;;;;;;;7.70;3.35;;;19.20;99.90;;;;;;5033606;28;20063;-87
2023/07/12 01:52:57;;;;;;;7.05;3.30;;;19.20;99.90;;;;;;5032266;28;20041;-87
2023/07/12 01:55:23;;;;;;;7.30;3.65;;;19.20;99.90;;;;;;5032894;28;20122;-86
2023/07/12 01:57:48;;;;;;;7.63;3.33;;;19.10;99.90;;;;;;5033169;28;20041;-86
2023/07/12 02:00:14;;;;;;;9.60;3.40;;;19.10;99.90;;;;;;5036383;28;20045;-86
2023/07/12 02:02:40;;;;;;;9.55;2.67;;;19.10;99.90;;;;;;5036413;28;20128;-86
2023/07/12 02:05:07;;;;;;;7.63;3.28;;;19.00;99.90;;;;;;5054396;28;20041;-87
2023/07/12 02:07:33;;;;;;;7.65;3.70;;;19.00;99.90;;;;;;5036624;28;20033;-86
2023/07/12 02:10:28;;;;;;;7.38;3.70;;;19.00;99.90;;;;;;5019654;28;20518;-86
2023/07/12 02:12:53;;;;;;;7.40;3.75;;;19.00;99.90;;;;;;4953036;29;20063;-86
2023/07/12 02:15:19;;;;;;;7.82;3.80;;;19.00;99.90;;;;;;4969648;28;20510;-86
2023/07/12 02:17:46;;;;;;;8.48;4.18;;;18.90;99.90;;;;;;4970117;28;20043;-87
2023/07/12 02:20:12;;;;;;;8.80;4.18;;;18.90;99.90;;;;;;4969492;28;20227;-87
2023/07/12 02:22:41;;;;;;;7.50;2.88;;;18.90;99.90;;;;;;4937370;29;20051;-86
2023/07/12 02:25:08;;;;;;;8.52;4.60;;;18.80;99.90;;;;;;4969261;28;20051;-86
2023/07/12 02:27:34;;;;;;;8.35;4.28;;;18.80;99.90;;;;;;4969412;28;20137;-87
2023/07/12 02:30:00;;;;;;;6.95;2.70;;;18.80;99.90;;;;;;4953308;29;20130;-86
2023/07/12 02:32:27;;;;;;;9.35;4.93;;;18.70;99.90;;;;;;4969443;28;20130;-86
2023/07/12 02:34:53;;;;;;;7.47;4.18;;;18.70;99.90;;;;;;4969161;28;20126;-86
2023/07/12 02:37:19;;;;;;;9.75;5.35;;;18.70;99.90;;;;;;4937303;29;20734;-86
2023/07/12 02:39:45;;;;;;;9.20;5.57;;;18.70;99.90;;;;;;4937410;29;20076;-86
2023/07/12 02:42:11;;;;;;;7.93;4.72;;;18.70;99.90;;;;;;4969355;28;20157;-87
2023/07/12 02:44:40;;;;;;;10.65;5.50;;;18.70;99.90;;;;;;4969065;28;20588;-86
2023/07/12 02:47:10;;;;;;;10.48;5.50;;;18.70;99.90;;;;;;4952989;29;20039;-87
2023/07/12 02:49:36;;;;;;;10.18;5.75;;;18.70;99.90;;;;;;4999460;28;20061;-86
2023/07/12 02:52:04;;;;;;;11.35;6.10;;;18.60;99.90;;;;;;5035424;28;20040;-86
2023/07/12 02:54:30;;;;;;;9.90;5.70;;;18.60;99.90;;;;;;5018069;28;20518;-86
2023/07/12 02:56:55;;;;;;;9.27;5.32;;;18.60;99.90;;;;;;5035989;28;20446;-87
2023/07/12 02:59:21;;;;;;;9.27;4.85;;;18.60;99.90;;;;;;5019117;28;20507;-86
2023/07/12 03:01:47;;;;;;;9.23;4.88;;;18.60;99.90;;;;;;5035113;28;20439;-87
2023/07/12 03:04:13;;;;;;;8.95;3.22;;;18.50;99.90;;;;;;5018497;28;20048;-86
2023/07/12 03:06:39;;;;;;;10.05;4.63;;;18.50;99.90;;;;;;5018790;28;20037;-86
2023/07/12 03:09:07;;;;;;;16.20;5.35;;;18.40;99.90;;;;;;5018337;28;20048;-86
2023/07/12 03:11:33;;;;;;;11.00;5.20;;;18.50;99.90;;;;;;5034825;28;20037;-87
2023/07/12 03:13:59;;;;;;;10.20;4.93;;;18.50;99.90;;;;;;5034412;28;20048;-87
2023/07/12 03:16:24;;;;;;;10.38;5.07;;;18.40;99.90;;;;;;5035189;28;20041;-86
2023/07/12 03:18:51;;;;;;;11.98;5.43;;;18.40;99.90;;;;;;5035270;28;20048;-86
2023/07/12 03:21:16;;;;;;;12.93;5.18;;;18.40;99.90;;;;;;5034913;28;20079;-86
2023/07/12 03:23:42;;;;;;;10.55;5.28;;;18.40;99.90;;;;;;5034855;28;20073;-86
2023/07/12 03:26:08;;;;;;;10.48;5.45;;;18.50;99.90;;;;;;5018447;28;20083;-86
2023/07/12 03:28:34;;;;;;;10.55;5.20;;;18.50;99.90;;;;;;5034754;28;20504;-87
2023/07/12 03:31:10;;;;;;;12.13;5.65;;;18.50;99.90;;;;;;5034633;28;20039;-86
2023/07/12 03:33:36;;;;;;;10.63;5.45;;;18.40;99.90;;;;;;5034434;28;20504;-86
2023/07/12 03:36:02;;;;;;;10.85;5.03;;;18.30;99.90;;;;;;5034534;28;20086;-87
2023/07/12 03:38:29;;;;;;;13.48;5.68;;;18.30;99.90;;;;;;5034662;28;20037;-86
2023/07/12 03:40:56;;;;;;;15.23;6.00;;;18.20;99.90;;;;;;5034526;28;20094;-86
2023/07/12 03:43:23;;;;;;;12.48;5.55;;;18.20;99.90;;;;;;5034374;28;20381;-86
2023/07/12 03:45:48;;;;;;;11.48;5.40;;;18.20;99.90;;;;;;5018227;28;20442;-86
2023/07/12 03:48:14;;;;;;;10.07;5.40;;;18.20;99.90;;;;;;5034342;28;20522;-86
2023/07/12 03:50:46;;;;;;;12.50;5.45;;;18.10;99.90;;;;;;5034199;28;20041;-86
2023/07/12 03:53:11;;;;;;;11.32;5.43;;;18.10;99.90;;;;;;5034007;28;20388;-86
2023/07/12 03:55:41;;;;;;;12.80;5.15;;;18.10;99.90;;;;;;5034277;28;20585;-86
2023/07/12 03:58:09;;;;;;;12.50;4.90;;;18.10;99.90;;;;;;5034746;28;20047;-86
2023/07/12 04:00:38;;;;;;;10.90;4.65;;;18.10;99.90;;;;;;5035317;28;20044;-86
2023/07/12 04:03:03;;;;;;;8.88;2.97;;;18.10;99.90;;;;;;5017977;28;20041;-87
2023/07/12 04:05:29;;;;;;;10.15;4.65;;;17.90;99.90;;;;;;5034318;28;20052;-86
2023/07/12 04:07:56;;;;;;;10.52;5.10;;;17.90;99.90;;;;;;5033982;28;20519;-86
2023/07/12 04:10:22;;;;;;;11.10;5.00;;;17.90;99.90;;;;;;5017602;28;20496;-86
2023/07/12 04:12:48;;;;;;;10.63;4.60;;;18.00;99.90;;;;;;5034023;28;20094;-86
2023/07/12 04:15:13;;;;;;;10.38;4.85;;;17.90;99.90;;;;;;5016832;28;20530;-87
2023/07/12 04:17:39;;;;;;;10.55;4.53;;;17.90;99.90;;;;;;5034163;28;20393;-87
2023/07/12 04:20:05;;;;;;;10.48;3.25;;;17.90;99.90;;;;;;5017475;28;20044;-86
2023/07/12 04:22:31;;;;;;;12.43;4.50;;;17.90;99.90;;;;;;5033048;28;20044;-86
2023/07/12 04:24:56;;;;;;;11.30;4.25;;;17.90;99.90;;;;;;5033808;28;20617;-86
2023/07/12 04:27:22;;;;;;;9.77;4.30;;;17.90;99.90;;;;;;5034169;28;20029;-86
2023/07/12 04:29:48;;;;;;;11.05;4.13;;;17.90;99.90;;;;;;5033627;28;20041;-86
2023/07/12 04:32:14;;;;;;;11.30;4.25;;;17.80;99.90;;;;;;5017453;28;20082;-86
2023/07/12 04:34:40;;;;;;;12.30;4.47;;;17.90;99.90;;;;;;5016473;28;20052;-86
2023/07/12 04:37:07;;;;;;;12.07;3.00;;;17.80;99.90;;;;;;5033441;28;20090;-86
2023/07/12 04:39:32;;;;;;;10.18;4.13;;;17.80;99.90;;;;;;5034076;28;20078;-86
2023/07/12 04:41:58;;;;;;;10.93;4.43;;;17.80;99.90;;;;;;5033386;28;20048;-86
2023/07/12 04:44:25;;;;;;;12.20;4.80;;;17.80;99.90;;;;;;5016617;28;20048;-86
2023/07/12 04:46:51;;;;;;;10.43;4.60;;;17.80;99.90;;;;;;5017320;28;20380;-86
2023/07/12 04:49:16;;;;;;;11.30;4.93;;;17.70;99.90;;;;;;5016837;28;20119;-86
2023/07/12 04:51:42;;;;;;;8.75;3.35;;;17.70;99.90;;;;;;5033520;28;20400;-86
2023/07/12 04:54:07;;;;;;;11.45;5.68;;;17.70;99.90;;;;;;5016459;28;20645;-86
2023/07/12 04:56:33;;;;;;;14.23;6.22;;;17.70;99.90;;;;;;5017088;28;20043;-86
2023/07/12 04:58:59;;;;;;;13.02;5.93;;;17.70;99.90;;;;;;5016964;28;20492;-86
2023/07/12 05:01:24;;;;;;;9.82;5.25;;;17.70;99.90;;;;;;5032949;28;20047;-86
2023/07/12 05:03:50;;;;;;;13.27;5.90;;;17.70;99.90;;;;;;5015902;28;20079;-86
2023/07/12 05:06:16;;;;;;;15.77;6.03;;;17.70;99.90;;;;;;5032880;28;20128;-86
2023/07/12 05:08:43;;;;;;;13.68;5.88;;;17.70;99.90;;;;;;5016453;28;20127;-86
2023/07/12 05:11:08;;;;;;;15.27;5.30;;;17.70;99.90;;;;;;5033171;28;20045;-86
2023/07/12 05:13:34;;;;;;;13.90;3.55;;;17.70;99.90;;;;;;5016034;28;20059;-86
2023/07/12 05:16:01;;;;;;;13.10;5.88;;;17.70;99.90;;;;;;5032730;28;20072;-86
2023/07/12 05:18:27;;;;;;;13.57;6.18;;;17.70;99.90;;;;;;5033382;28;20052;-86
2023/07/12 05:20:53;;;;;;;13.13;6.28;;;17.70;99.90;;;;;;5033542;28;20044;-87
2023/07/12 05:23:19;;;;;;;15.40;7.25;;;17.70;99.90;;;;;;5016536;28;20396;-87
2023/07/12 05:25:53;;;;;;;14.02;5.05;;;17.70;99.90;;;;;;5033194;28;20044;-86
2023/07/12 05:28:19;;;;;;;14.15;6.90;;;17.70;99.90;;;;;;5033289;28;20047;-86
2023/07/12 05:30:45;;;;;;;13.75;7.30;;;17.70;99.90;;;;;;5016546;28;20075;-86
2023/07/12 05:33:11;;;;;;;13.88;6.90;;;17.80;99.90;;;;;;5033502;28;20045;-86
2023/07/12 05:35:37;;;;;;;13.45;7.35;;;17.80;99.90;;;;;;5020088;28;20041;-86
2023/07/12 05:38:03;;;;;;;14.18;5.40;;;17.80;99.90;;;;;;5036659;28;20047;-86
2023/07/12 05:40:32;;;;;;;12.88;7.80;;;17.80;99.90;;;;;;5037417;28;20123;-86
2023/07/12 05:42:58;;;;;;;14.48;8.18;;;17.80;99.90;;;;;;5036552;28;20507;-86
2023/07/12 05:45:24;;;;;;;14.82;8.70;;;17.80;99.90;;;;;;5020199;28;20040;-86
2023/07/12 05:47:50;;;;;;;17.05;9.18;;;17.80;99.90;;;;;;5036783;28;20037;-86
2023/07/12 05:50:17;;;;;;;15.50;8.90;;;17.80;99.90;;;;;;5020432;28;20487;-87
2023/07/12 05:52:43;;;;;;;13.13;8.63;;;17.80;99.90;;;;;;5037521;28;20041;-87
2023/07/12 05:55:11;;;;;;;13.57;6.43;;;17.80;99.90;;;;;;5037359;28;20044;-87
2023/07/12 05:57:37;;;;;;;17.95;10.15;;;17.80;99.90;;;;;;5020812;28;20037;-87
2023/07/12 06:00:04;;;;;;;17.42;10.15;;;17.90;99.90;;;;;;5037562;28;20090;-87
2023/07/12 06:02:29;;;;;;;16.10;9.82;;;18.00;99.90;;;;;;5037050;28;20052;-87
2023/07/12 06:04:55;;;;;;;18.75;8.88;;;18.00;99.90;;;;;;5036735;28;20037;-86
2023/07/12 06:07:21;;;;;;;15.07;9.57;;;18.00;99.90;;;;;;5036820;28;20648;-87
2023/07/12 06:09:46;;;;;;;17.95;9.88;;;18.00;99.90;;;;;;5020038;28;20033;-87
2023/07/12 06:12:12;;;;;;;11.40;6.45;;;18.00;99.90;;;;;;5036147;28;20037;-86
2023/07/12 06:14:38;;;;;;;16.80;10.30;;;18.00;99.90;;;;;;5019857;28;20048;-87
2023/07/12 06:17:05;;;;;;;18.92;10.10;;;18.00;99.90;;;;;;5036284;28;20037;-87
2023/07/12 06:19:31;;;;;;;22.30;9.95;;;18.10;99.90;;;;;;5036446;28;20073;-87
2023/07/12 06:21:57;;;;;;;18.65;9.93;;;18.20;99.90;;;;;;5019749;28;20085;-86
2023/07/12 06:24:22;;;;;;;17.92;10.18;;;18.20;99.90;;;;;;5035828;28;20055;-86
2023/07/12 06:26:48;;;;;;;15.45;10.02;;;18.20;99.90;;;;;;5036187;28;20040;-87
2023/07/12 06:29:14;;;;;;;15.77;10.63;;;18.30;99.90;;;;;;5018893;28;20067;-86
2023/07/12 06:31:42;;;;;;;17.50;10.20;;;18.30;99.90;;;;;;5018464;28;20029;-87
2023/07/12 06:34:09;;;;;;;16.48;10.80;;;18.30;99.90;;;;;;5035402;28;20064;-87
2023/07/12 06:36:34;;;;;;;16.75;9.20;;;18.30;99.90;;;;;;5035569;28;20076;-86
2023/07/12 06:39:00;;;;;;;17.30;9.95;;;18.20;99.90;;;;;;5036250;28;20083;-86
2023/07/12 06:41:26;;;;;;;16.92;9.73;;;18.30;99.90;;;;;;5035749;28;20495;-86
2023/07/12 06:43:51;;;;;;;13.30;6.63;;;18.20;99.90;;;;;;5034929;28;20040;-86
2023/07/12 06:46:17;;;;;;;18.27;10.00;;;18.30;99.90;;;;;;5034706;28;20044;-86
2023/07/12 06:48:43;;;;;;;16.17;10.60;;;18.20;99.90;;;;;;5018989;28;20094;-87
2023/07/12 06:51:09;;;;;;;18.75;10.02;;;18.30;99.90;;;;;;5035408;28;20036;-86
2023/07/12 06:53:35;;;;;;;15.00;7.10;;;18.30;99.90;;;;;;5035178;28;20461;-86
2023/07/12 06:56:01;;;;;;;17.08;9.82;;;18.30;99.90;;;;;;5035098;28;20487;-86
2023/07/12 06:58:26;;;;;;;14.00;10.05;;;18.40;99.90;;;;;;5035760;28;20044;-86
2023/07/12 07:00:52;;;;;;;15.30;10.07;;;18.50;99.90;;;;;;5035792;28;20036;-86
2023/07/12 07:03:18;;;;;;;15.43;9.80;;;18.50;99.90;;;;;;5034630;28;20072;-86
2023/07/12 07:05:46;;;;;;;14.25;5.68;;;18.60;99.90;;;;;;5018893;28;20408;-86
2023/07/12 07:08:15;;;;;;;15.88;9.25;;;18.60;99.90;;;;;;5035154;28;20083;-87
2023/07/12 07:10:42;;;;;;;15.55;9.80;;;18.60;99.90;;;;;;5035045;28;20455;-86
2023/07/12 07:13:08;;;;;;;16.80;8.82;;;18.60;99.90;;;;;;5033927;28;20090;-87
2023/07/12 07:15:34;;;;;;;14.70;8.68;;;18.60;99.90;;;;;;5018628;28;20450;-87
2023/07/12 07:18:00;;;;;;;14.82;8.55;;;18.60;99.90;;;;;;5033701;28;20599;-86
2023/07/12 07:20:27;;;;;;;15.45;7.93;;;18.50;99.90;;;;;;5035356;28;20048;-86
2023/07/12 07:22:53;;;;;;;14.55;8.82;;;18.50;99.90;;;;;;5034765;28;20045;-86
2023/07/12 07:25:18;;;;;;;14.10;8.80;;;18.50;99.90;;;;;;5018149;28;20048;-86
2023/07/12 07:27:44;;;;;;;15.55;9.05;;;18.40;99.90;;;;;;5018175;28;20073;-86
2023/07/12 07:30:11;;;;;;;17.27;8.90;;;18.40;99.90;;;;;;5033783;28;20029;-86
2023/07/12 07:32:37;;;;;;;13.98;8.68;;;18.40;99.90;;;;;;5033572;28;20029;-86
2023/07/12 07:35:03;;;;;;;18.65;9.43;;;18.40;99.90;;;;;;5033326;28;20051;-86
2023/07/12 07:37:29;;;;;;;16.92;8.15;;;18.30;99.90;;;;;;5033725;28;20049;-86
2023/07/12 07:39:55;;;;;;;15.02;8.85;;;18.30;99.90;;;;;;5018322;28;20396;-86
2023/07/12 07:42:20;;;;;;;14.00;6.22;;;18.30;99.90;;;;;;5018186;28;20033;-86
2023/07/12 07:44:46;;;;;;;14.90;8.57;;;18.40;99.90;;;;;;5033993;28;20044;-86
2023/07/12 07:47:11;;;;;;;15.27;8.15;;;18.50;99.90;;;;;;5034616;28;20120;-86
2023/07/12 07:49:37;;;;;;;14.13;7.88;;;18.60;99.90;;;;;;5018311;28;20098;-86
2023/07/12 07:52:04;;;;;;;14.93;8.07;;;18.70;99.90;;;;;;5034437;28;20072;-86
2023/07/12 07:54:29;;;;;;;18.13;8.50;;;18.80;99.90;;;;;;5033335;28;20045;-87
2023/07/12 07:56:55;;;;;;;13.45;7.07;;;18.90;99.90;;;;;;5034000;28;20069;-86
2023/07/12 07:59:22;;;;;;;14.40;6.93;;;18.90;99.90;;;;;;5034661;28;20045;-86
2023/07/12 08:01:47;;;;;;;15.57;8.20;;;19.10;99.90;;;;;;5017920;28;20037;-86
2023/07/12 08:04:13;;;;;;;14.82;8.07;;;19.20;99.90;;;;;;5033555;28;20427;-86
2023/07/12 08:06:39;;;;;;;14.38;7.90;;;19.20;99.90;;;;;;5034330;28;20040;-86
2023/07/12 08:09:06;;;;;;;15.07;7.88;;;19.30;99.90;;;;;;5033956;28;20553;-86
2023/07/12 08:11:32;;;;;;;14.77;7.53;;;19.40;99.90;;;;;;5017433;28;20047;-86
2023/07/12 08:13:58;;;;;;;15.68;7.90;;;19.40;99.90;;;;;;5033477;28;20483;-86
2023/07/12 08:16:29;;;;;;;15.32;7.47;;;19.60;99.90;;;;;;5033510;28;20037;-87
2023/07/12 08:18:55;;;;;;;14.27;7.47;;;19.70;99.90;;;;;;5034483;28;20045;-87
2023/07/12 08:21:21;;;;;;;15.55;7.80;;;19.70;99.90;;;;;;5035139;28;20040;-86
2023/07/12 08:23:47;;;;;;;14.00;6.35;;;19.60;99.90;;;;;;5033339;28;20102;-87
2023/07/12 08:26:14;;;;;;;16.52;7.18;;;19.50;99.90;;;;;;5033897;28;20392;-87
2023/07/12 08:28:40;;;;;;;13.68;6.85;;;19.40;99.90;;;;;;5033926;28;20033;-87
2023/07/12 08:31:05;;;;;;;16.30;7.15;;;19.40;99.90;;;;;;5017486;28;20079;-87
2023/07/12 08:33:31;;;;;;;12.15;6.93;;;19.40;99.90;;;;;;5015854;28;20554;-87
2023/07/12 08:35:56;;;;;;;13.18;7.35;;;19.50;99.90;;;;;;5016671;28;20080;-86
2023/07/12 08:38:22;;;;;;;13.90;7.43;;;19.60;99.90;;;;;;5033307;28;20128;-87
2023/07/12 08:40:50;;;;;;;15.23;6.68;;;19.80;99.90;;;;;;5032585;28;20478;-87
2023/07/12 08:43:18;;;;;;;14.50;6.80;;;20.00;99.90;;;;;;5032886;28;20037;-87
2023/07/12 08:45:47;;;;;;;12.55;6.20;;;20.00;99.90;;;;;;5033472;28;20048;-87
2023/07/12 08:48:21;;;;;;;14.48;6.03;;;19.90;99.90;;;;;;5017134;28;20029;-86
2023/07/12 08:50:48;;;;;;;14.13;6.78;;;19.80;99.90;;;;;;5033113;28;20048;-87
2023/07/12 08:53:20;;;;;;;12.90;7.05;;;19.70;99.90;;;;;;5016001;28;20029;-87
2023/07/12 08:55:46;;;;;;;13.80;6.85;;;19.70;99.90;;;;;;5033143;28;20063;-87
2023/07/12 08:58:19;;;;;;;14.85;7.07;;;19.70;99.90;;;;;;5031492;28;20443;-87
2023/07/12 09:00:50;;;;;;;14.43;7.10;;;19.80;99.90;;;;;;5034048;28;20044;-87
2023/07/12 09:03:16;;;;;;;14.77;6.97;;;19.80;99.90;;;;;;5016552;28;20113;-87
2023/07/12 09:05:42;;;;;;;14.45;6.53;;;19.90;99.90;;;;;;5032972;28;20408;-87
2023/07/12 09:08:39;;;;;;;13.35;6.20;;;19.90;99.90;;;;;;5016300;28;20032;-87
2023/07/12 09:11:16;;;;;;;14.60;6.40;;;19.80;99.90;;;;;;5017573;28;20071;-87
2023/07/12 09:13:44;;;;;;;14.32;6.57;;;19.90;99.90;;;;;;5032260;28;20052;-87
2023/07/12 09:16:26;;;;;;;12.38;6.75;;;19.80;99.90;;;;;;5033103;28;20202;-87
2023/07/12 09:18:55;;;;;;;12.60;6.40;;;19.90;99.90;;;;;;5032767;28;20044;-88
2023/07/12 09:21:26;;;;;;;12.68;6.53;;;19.90;99.90;;;;;;5033187;28;20095;-87
2023/07/12 09:23:59;;;;;;;13.18;6.43;;;19.90;99.90;;;;;;5016083;28;20043;-87
2023/07/12 09:26:27;;;;;;;13.63;6.57;;;19.90;99.90;;;;;;5016505;28;20456;-88
2023/07/12 09:28:58;;;;;;;13.43;6.10;;;19.90;99.90;;;;;;5032884;28;20065;-88
2023/07/12 09:31:28;;;;;;;13.40;7.22;;;19.90;99.90;;;;;;5032736;28;20036;-88
2023/07/12 09:33:58;;;;;;;13.57;7.05;;;19.90;99.90;;;;;;5030749;28;20130;-87
2023/07/12 09:36:24;;;;;;;16.13;7.25;;;19.80;99.90;;;;;;5013940;28;20044;-88
2023/07/12 09:38:50;;;;;;;12.43;7.10;;;19.70;99.90;;;;;;5031090;28;20411;-88
2023/07/12 09:41:19;;;;;;;15.80;6.38;;;19.70;99.90;;;;;;5031366;28;20033;-87
2023/07/12 09:43:54;;;;;;;14.35;6.00;;;19.60;99.90;;;;;;5032389;28;20470;-87
2023/07/12 09:46:38;;;;;;;13.30;6.57;;;19.60;99.90;;;;;;5015999;28;20029;-86
2023/07/12 09:49:20;;;;;;;15.07;6.57;;;19.60;99.90;;;;;;5030592;28;20079;-86
2023/07/12 09:52:03;;;;;;;17.67;6.53;;;19.70;99.90;;;;;;5030894;28;20095;-86
2023/07/12 09:54:52;;;;;;;15.73;6.25;;;19.70;99.90;;;;;;5030600;28;20120;-86
2023/07/12 09:57:59;;;;;;;21.08;8.20;;;19.70;99.90;;;;;;5031869;28;20044;-87
2023/07/12 10:00:47;;;;;;;16.98;8.13;;;19.60;99.90;;;;;;5031232;28;20044;-87
2023/07/12 10:03:34;;;;;;;16.70;9.32;;;19.30;99.90;;;;;;5031838;28;20112;-87
2023/07/12 10:06:11;;;;;;;15.65;8.05;;;19.20;99.90;;;;;;5032299;28;20041;-87
2023/07/12 10:08:59;;;;;;;16.42;7.13;;;19.10;99.90;;;;;;5032973;28;20056;-87
2023/07/12 10:11:46;;;;;;;13.70;6.88;;;19.10;99.90;;;;;;5032776;28;20063;-86
2023/07/12 10:14:16;;;;;;;16.63;7.00;;;19.20;99.90;;;;;;5032184;28;20068;-86
2023/07/12 10:16:49;;;;;;;15.82;8.07;;;19.30;99.90;;;;;;5015811;28;20040;-87
2023/07/12 10:19:31;;;;;;;15.48;7.57;;;19.50;99.90;;;;;;5032454;28;20167;-86
2023/07/12 10:21:59;;;;;;;16.30;7.25;;;19.60;99.90;;;;;;5036214;28;20120;-87
2023/07/12 10:24:39;;;;;;;16.77;7.45;;;19.60;99.90;;;;;;5035442;28;20060;-87
2023/07/12 10:27:23;;;;;;;14.75;6.88;;;19.60;99.90;;;;;;5035768;28;20130;-87
2023/07/12 10:29:57;;;;;;;18.25;7.65;;;19.50;99.90;;;;;;5017795;28;20499;-87
2023/07/12 10:32:31;;;;;;;16.30;6.85;;;19.50;99.90;;;;;;5036206;28;20120;-87
2023/07/12 10:35:05;;;;;;;17.05;6.93;;;19.40;99.90;;;;;;5035083;28;20045;-87
2023/07/12 10:37:40;;;;;;;13.13;6.38;;;19.50;99.90;;;;;;5019247;28;20086;-87
2023/07/12 10:40:16;;;;;;;16.30;7.65;;;19.50;99.90;;;;;;5035710;28;20141;-87
2023/07/12 10:42:49;;;;;;;13.15;7.78;;;19.50;99.90;;;;;;5019436;28;20099;-87
2023/07/12 10:45:24;;;;;;;;;;;19.50;99.90;;;;;;5018906;28;20123;-86
2023/07/12 10:47:51;;;;;;;11.82;6.28;;;19.40;99.90;;;;;;5035737;28;19920;-86
2023/07/12 10:50:24;;;;;;;11.68;6.85;;;19.40;99.90;;;;;;5035771;28;20037;-86
2023/07/12 10:53:17;;;;;;;14.70;8.00;;;19.40;99.90;;;;;;5018685;28;20550;-86
2023/07/12 10:56:05;;;;;;;14.68;7.55;;;19.60;99.90;;;;;;5034224;28;20511;-86
2023/07/12 10:58:57;;;;;;;16.52;7.78;;;19.60;99.90;;;;;;5032194;28;20041;-87
2023/07/12 11:01:41;;;;;;;14.80;7.13;;;19.70;99.90;;;;;;5051276;28;20037;-87
2023/07/12 11:04:11;;;;;;;12.52;7.28;;;19.80;99.90;;;;;;5017627;28;20037;-86
2023/07/12 11:06:57;;;;;;;12.35;6.10;;;19.80;99.90;;;;;;5034543;28;20041;-87
2023/07/12 11:09:24;;;;;;;12.68;5.88;;;19.70;99.90;;;;;;5033855;28;20033;-86
2023/07/12 11:12:06;;;;;;;13.27;6.18;;;19.70;99.90;;;;;;5015050;28;20029;-86
2023/07/12 11:14:37;;;;;;;12.05;5.30;;;19.70;99.90;;;;;;5031748;28;20059;-86
2023/07/12 11:17:28;;;;;;;12.50;5.00;;;19.80;99.90;;;;;;5017782;28;20037;-86
2023/07/12 11:20:07;;;;;;;11.43;4.90;;;19.80;99.90;;;;;;5016265;28;20276;-86
2023/07/12 11:22:55;;;;;;;12.32;5.10;;;19.80;99.90;;;;;;5018485;28;20128;-86
2023/07/12 11:25:27;;;;;;;14.55;5.57;;;19.80;99.90;;;;;;5034545;28;20432;-86
2023/07/12 11:27:53;;;;;;;;;;;19.90;99.90;;;;;;5019110;28;20434;-86
2023/07/12 11:30:27;;;;;;;14.38;5.65;;;20.00;99.90;;;;;;5034142;28;20419;-86
2023/07/12 11:33:03;;;;;;;11.02;5.63;;;20.20;99.90;;;;;;5031014;28;20492;-87
2023/07/12 11:35:47;;;;;;;12.32;5.65;;;20.40;99.90;;;;;;5034537;28;20059;-86
2023/07/12 11:38:34;;;;;;;10.70;5.63;;;20.60;99.90;;;;;;5034531;28;20081;-86
2023/07/12 11:41:14;;;;;;;12.45;5.38;;;20.70;99.90;;;;;;5034506;28;20049;-86
2023/07/12 11:43:40;;;;;;;15.93;6.72;;;20.90;99.90;;;;;;5034276;28;20041;-86
2023/07/12 11:46:18;;;;;;;14.52;6.00;;;21.10;99.90;;;;;;5017978;28;20076;-87
2023/07/12 11:48:49;;;;;;;13.45;6.15;;;21.30;99.90;;;;;;5018271;28;20094;-88
2023/07/12 11:51:29;;;;;;;12.57;5.68;;;21.50;99.90;;;;;;5018151;28;20133;-88
2023/07/12 11:53:57;;;;;;;10.60;4.93;;;21.60;99.90;;;;;;5034001;28;20466;-87
2023/07/12 11:56:24;;;;;;;11.15;5.50;;;21.60;99.90;;;;;;5017767;28;20041;-87
2023/07/12 11:58:50;;;;;;;13.70;5.38;;;21.50;99.90;;;;;;5017519;28;20086;-87
2023/07/12 12:01:18;;;;;;;11.88;4.95;;;21.60;99.90;;;;;;5017782;28;20438;-87
2023/07/12 12:03:48;;;;;;;11.07;4.90;;;21.60;99.90;;;;;;5033820;28;20120;-87
2023/07/12 12:06:14;;;;;;;15.07;4.82;;;21.50;99.90;;;;;;5034139;28;20459;-87
2023/07/12 12:08:47;;;;;;;12.55;5.38;;;21.50;99.90;;;;;;5017906;28;20043;-87
2023/07/12 12:11:13;;;;;;;10.93;4.70;;;21.50;99.90;;;;;;5033635;28;20123;-88
2023/07/12 12:13:45;;;;;;;11.07;4.43;;;21.50;99.90;;;;;;5033526;28;20131;-87
2023/07/12 12:16:29;;;;;;;12.57;5.22;;;21.50;99.90;;;;;;5033684;28;20037;-87
2023/07/12 12:19:07;;;;;;;10.32;3.88;;;21.50;99.90;;;;;;5033295;28;20126;-87
2023/07/12 12:21:33;;;;;;;11.60;4.68;;;21.40;99.90;;;;;;5034176;28;20075;-87
2023/07/12 12:24:14;;;;;;;11.25;3.90;;;21.50;99.90;;;;;;5033219;28;20048;-86
2023/07/12 12:26:42;;;;;;;6.88;2.10;;;21.70;99.90;;;;;;5033634;28;20621;-87
2023/07/12 12:29:16;;;;;;;6.32;1.75;;;21.80;99.90;;;;;;5033969;28;20037;-87
2023/07/12 12:32:12;;;;;;;4.43;1.70;;;21.90;99.90;;;;;;5033447;28;20041;-87
2023/07/12 12:34:43;;;;;;;8.05;1.90;;;22.10;99.90;;;;;;5032231;28;20133;-87
2023/07/12 12:37:11;;;;;;;8.02;2.30;;;22.30;99.30;;;;;;5018340;28;20040;-87
2023/07/12 12:39:37;;;;;;;8.13;2.33;;;22.40;99.50;;;;;;5016895;28;20510;-87
2023/07/12 12:42:17;;;;;;;6.97;2.00;;;22.60;99.00;;;;;;5017073;28;20033;-86
2023/07/12 12:44:43;;;;;;;6.70;1.90;;;22.70;98.10;;;;;;5032386;28;20403;-86
2023/07/12 12:47:15;;;;;;;4.80;1.60;;;22.60;97.70;;;;;;5033200;28;20037;-86
2023/07/12 12:49:41;;;;;;;7.53;2.00;;;22.60;95.80;;;;;;5033426;28;20052;-86
2023/07/12 12:52:28;;;;;;;6.70;1.80;;;22.70;94.20;;;;;;5033095;28;20037;-86